Time;durP1;ratioP1;P1;durP2;ratioP2;P2;SDS_P1;SDS_P2;PMS_P1;PMS_P2;Temp;Humidity;BMP_temperature;BMP_pressure;BME280_temperature;BME280_humidity;BME280_pressure;Samples;Min_cycle;Max_cycle;Signal;HPM_P1;HPM_P2
2022/06/18 00:00:12;;;;;;;6.00;2.13;;;22.10;75.60;;;;;;4195955;28;20515;-84
2022/06/18 00:02:15;;;;;;;;;;;22.10;75.70;;;;;;4198131;28;20113;-84
2022/06/18 00:04:20;;;;;;;8.05;2.00;;;22.00;77.00;;;;;;4197036;28;19927;-85
2022/06/18 00:06:20;;;;;;;8.70;2.55;;;22.00;75.90;;;;;;4197097;28;20476;-85
2022/06/18 00:08:28;;;;;;;5.68;2.30;;;21.90;76.20;;;;;;4197040;28;20098;-85
2022/06/18 00:10:30;;;;;;;6.93;2.65;;;22.00;76.60;;;;;;4195203;28;20055;-85
2022/06/18 00:14:51;;;;;;;6.93;2.72;;;21.90;76.70;;;;;;4196914;28;20095;-85
2022/06/18 00:16:52;;;;;;;4.43;2.58;;;21.90;76.90;;;;;;4199911;28;20052;-85
2022/06/18 00:18:53;;;;;;;5.47;2.80;;;21.80;77.00;;;;;;4198903;28;20046;-85
2022/06/18 00:20:54;;;;;;;4.55;2.38;;;21.80;77.40;;;;;;4200258;28;20051;-85
2022/06/18 00:22:59;;;;;;;4.60;2.70;;;21.80;77.70;;;;;;4198161;28;20127;-86
2022/06/18 00:25:00;;;;;;;6.10;2.63;;;21.80;78.00;;;;;;4199697;28;20041;-85
2022/06/18 00:27:04;;;;;;;7.95;2.40;;;21.80;78.40;;;;;;4200294;28;20041;-84
2022/06/18 00:29:10;;;;;;;10.13;2.75;;;21.80;78.40;;;;;;4200680;28;20059;-85
2022/06/18 00:31:11;;;;;;;7.78;2.58;;;21.70;78.40;;;;;;4199928;28;20393;-85
2022/06/18 00:33:13;;;;;;;5.88;2.58;;;21.70;78.20;;;;;;4198361;28;20080;-85
2022/06/18 00:35:15;;;;;;;3.92;2.67;;;21.80;78.10;;;;;;4199604;28;20059;-85
2022/06/18 00:37:19;;;;;;;5.35;2.30;;;21.70;77.90;;;;;;4198167;28;20055;-85
2022/06/18 00:39:20;;;;;;;11.10;3.60;;;21.70;77.80;;;;;;4199543;28;20432;-85
2022/06/18 00:41:25;;;;;;;4.30;2.58;;;21.70;77.50;;;;;;4199508;28;20041;-85
2022/06/18 00:43:31;;;;;;;4.82;2.42;;;21.80;77.50;;;;;;4199058;28;20132;-85
2022/06/18 00:45:31;;;;;;;4.97;2.70;;;21.80;77.50;;;;;;4198135;28;20048;-85
2022/06/18 00:47:55;;;;;;;7.05;2.80;;;21.80;77.30;;;;;;4199377;28;20048;-85
2022/06/18 00:50:21;;;;;;;8.38;2.95;;;21.70;78.40;;;;;;4199341;28;20382;-86
2022/06/18 00:52:34;;;;;;;3.28;2.70;;;21.70;77.90;;;;;;4198926;28;20115;-85
2022/06/18 00:54:57;;;;;;;6.93;3.50;;;21.70;78.00;;;;;;4199301;28;20377;-85
2022/06/18 00:57:05;;;;;;;7.40;2.88;;;21.60;78.30;;;;;;4199247;28;20379;-85
2022/06/18 00:59:37;;;;;;;9.25;3.80;;;21.60;78.80;;;;;;4199253;28;20443;-85
2022/06/18 01:01:42;;;;;;;6.13;2.90;;;21.60;78.80;;;;;;4198762;28;20083;-85
2022/06/18 01:03:45;;;;;;;6.78;2.92;;;21.50;78.90;;;;;;4199191;28;20094;-85
2022/06/18 01:05:45;;;;;;;6.70;2.75;;;21.50;78.70;;;;;;4199056;28;20166;-85
2022/06/18 01:07:50;;;;;;;7.40;2.70;;;21.50;79.10;;;;;;4199096;28;20477;-85
2022/06/18 01:09:52;;;;;;;9.95;3.35;;;21.50;79.30;;;;;;4199031;28;20508;-85
2022/06/18 01:11:54;;;;;;;4.72;2.85;;;21.40;79.30;;;;;;4198576;28;20039;-85
2022/06/18 01:13:57;;;;;;;5.03;2.80;;;21.40;79.50;;;;;;4197607;28;20048;-85
2022/06/18 01:15:58;;;;;;;4.68;3.10;;;21.40;79.60;;;;;;4198654;28;20084;-84
2022/06/18 01:18:00;;;;;;;7.70;3.03;;;21.40;79.60;;;;;;4196775;28;20549;-84
2022/06/18 01:20:05;;;;;;;7.63;3.38;;;21.40;79.70;;;;;;4198218;28;20044;-84
2022/06/18 01:22:34;;;;;;;6.47;3.30;;;21.40;79.80;;;;;;4198092;28;20044;-84
2022/06/18 01:24:41;;;;;;;5.53;3.20;;;21.40;80.70;;;;;;4197953;28;20123;-85
2022/06/18 01:26:44;;;;;;;9.85;3.53;;;21.40;80.40;;;;;;4197828;28;20044;-85
2022/06/18 01:28:46;;;;;;;7.28;3.35;;;21.40;80.10;;;;;;4194336;28;20044;-85
2022/06/18 01:30:47;;;;;;;5.15;3.88;;;21.30;80.20;;;;;;4182091;28;20045;-85
2022/06/18 01:32:51;;;;;;;8.60;4.38;;;21.30;80.50;;;;;;4182098;28;20052;-85
2022/06/18 01:34:52;;;;;;;7.22;3.70;;;21.30;80.80;;;;;;4182168;28;20053;-85
2022/06/18 01:36:54;;;;;;;5.88;3.65;;;21.30;80.90;;;;;;4181258;28;20041;-85
2022/06/18 01:38:55;;;;;;;12.10;4.05;;;21.30;81.10;;;;;;4180512;28;20459;-85
2022/06/18 01:43:41;;;;;;;8.13;3.65;;;21.20;82.10;;;;;;4181633;28;20049;-85
2022/06/18 01:45:44;;;;;;;6.32;3.90;;;21.20;81.70;;;;;;4180324;28;20578;-85
2022/06/18 01:48:05;;;;;;;7.03;3.92;;;21.10;82.20;;;;;;4181924;28;20073;-85
2022/06/18 01:50:13;;;;;;;6.20;3.95;;;21.10;82.70;;;;;;4181918;28;20616;-85
2022/06/18 01:52:18;;;;;;;9.15;4.40;;;21.10;83.60;;;;;;4181637;28;20551;-85
2022/06/18 01:54:26;;;;;;;9.80;4.07;;;21.00;83.50;;;;;;4181583;28;20049;-85
2022/06/18 01:56:34;;;;;;;6.63;3.95;;;20.90;83.80;;;;;;4181232;28;20430;-85
2022/06/18 01:58:40;;;;;;;9.82;4.57;;;20.90;85.00;;;;;;4181715;28;20120;-85
2022/06/18 02:00:44;;;;;;;14.40;4.28;;;20.80;85.00;;;;;;4181696;28;20040;-85
2022/06/18 02:02:45;;;;;;;12.95;4.90;;;20.80;84.80;;;;;;4181574;28;20056;-85
2022/06/18 02:04:46;;;;;;;13.10;4.78;;;20.80;85.30;;;;;;4181067;28;20071;-85
2022/06/18 02:06:49;;;;;;;5.88;4.43;;;20.70;85.60;;;;;;4181469;28;20440;-85
2022/06/18 02:08:50;;;;;;;9.45;4.57;;;20.70;86.10;;;;;;4180453;28;20052;-85
2022/06/18 02:11:02;;;;;;;8.20;4.35;;;20.70;86.70;;;;;;4181510;28;20047;-85
2022/06/18 02:13:04;;;;;;;12.23;4.50;;;20.60;87.00;;;;;;4181601;28;20048;-85
2022/06/18 02:15:12;;;;;;;6.72;4.45;;;20.50;87.60;;;;;;4180925;28;20053;-85
2022/06/18 02:17:17;;;;;;;7.60;5.50;;;20.50;88.60;;;;;;4181405;28;20044;-85
2022/06/18 02:19:18;;;;;;;11.10;4.47;;;20.50;88.40;;;;;;4181403;28;20040;-85
2022/06/18 02:21:23;;;;;;;13.57;5.43;;;20.40;88.70;;;;;;4181171;28;20049;-85
2022/06/18 02:23:24;;;;;;;9.98;5.40;;;20.30;90.00;;;;;;4181359;28;20159;-85
2022/06/18 02:25:30;;;;;;;14.88;5.45;;;20.30;90.10;;;;;;4181658;28;20246;-85
2022/06/18 02:27:31;;;;;;;10.90;5.60;;;20.20;90.70;;;;;;4180641;28;20095;-85
2022/06/18 02:29:34;;;;;;;10.27;5.40;;;20.20;90.90;;;;;;4179687;28;20459;-85
2022/06/18 02:31:35;;;;;;;15.88;7.07;;;20.10;91.20;;;;;;4180982;28;20138;-85
2022/06/18 02:33:38;;;;;;;10.65;6.55;;;20.10;91.40;;;;;;4180984;28;20047;-85
2022/06/18 02:35:39;;;;;;;11.07;5.80;;;20.00;91.70;;;;;;4181016;28;20060;-85
2022/06/18 02:37:41;;;;;;;11.77;6.10;;;20.00;91.90;;;;;;4180301;28;20116;-85
2022/06/18 02:39:53;;;;;;;10.05;5.82;;;19.90;92.10;;;;;;4181022;28;20044;-85
2022/06/18 02:42:01;;;;;;;8.82;6.18;;;19.90;93.00;;;;;;4180567;28;20071;-85
2022/06/18 02:44:02;;;;;;;11.50;6.28;;;19.80;93.00;;;;;;4163272;28;20053;-85
2022/06/18 02:46:04;;;;;;;10.18;6.40;;;19.80;92.90;;;;;;4179665;28;20041;-85
2022/06/18 02:48:07;;;;;;;11.23;6.22;;;19.70;93.10;;;;;;4180982;28;20036;-85
2022/06/18 02:50:14;;;;;;;13.80;6.07;;;19.70;93.40;;;;;;4180926;28;20548;-85
2022/06/18 02:52:14;;;;;;;12.82;7.35;;;19.70;93.80;;;;;;4180879;28;20056;-85
2022/06/18 02:54:18;;;;;;;10.43;6.35;;;19.60;93.80;;;;;;4180552;28;20044;-84
2022/06/18 02:56:19;;;;;;;10.20;6.78;;;19.50;94.40;;;;;;4180752;28;20099;-85
2022/06/18 02:58:32;;;;;;;11.85;6.60;;;19.50;94.30;;;;;;4180118;28;20040;-84
2022/06/18 03:00:37;;;;;;;10.20;6.53;;;19.40;94.80;;;;;;4179220;28;20064;-84
2022/06/18 03:02:38;;;;;;;12.90;7.78;;;19.30;94.80;;;;;;4180617;28;20041;-84
2022/06/18 03:04:39;;;;;;;10.52;6.32;;;19.30;95.00;;;;;;4180371;28;20047;-84
2022/06/18 03:06:39;;;;;;;12.90;7.15;;;19.30;95.20;;;;;;4178504;28;20514;-85
2022/06/18 03:08:40;;;;;;;14.88;6.57;;;19.20;95.50;;;;;;4180319;28;20041;-85
2022/06/18 03:13:00;;;;;;;11.80;7.00;;;19.10;95.80;;;;;;4180830;28;20406;-85
2022/06/18 03:15:01;;;;;;;11.95;7.55;;;19.10;95.90;;;;;;4178976;28;20265;-84
2022/06/18 03:17:02;;;;;;;14.93;7.53;;;19.10;96.10;;;;;;4180345;28;20167;-85
2022/06/18 03:19:04;;;;;;;13.70;8.77;;;19.00;96.30;;;;;;4180491;28;20064;-86
2022/06/18 03:21:29;;;;;;;15.30;7.70;;;18.90;96.50;;;;;;4180014;28;20058;-86
2022/06/18 03:23:31;;;;;;;18.15;8.13;;;18.90;97.70;;;;;;4179404;28;20076;-85
2022/06/18 03:25:31;;;;;;;12.32;8.15;;;18.80;96.80;;;;;;4180608;28;20048;-85
2022/06/18 03:27:32;;;;;;;15.82;8.18;;;18.80;97.20;;;;;;4180449;28;20041;-85
2022/06/18 03:29:33;;;;;;;14.35;8.52;;;18.80;97.30;;;;;;4180215;28;20045;-85
2022/06/18 03:31:35;;;;;;;15.75;8.63;;;18.80;97.40;;;;;;4180551;28;20485;-86
2022/06/18 03:33:35;;;;;;;18.27;8.57;;;18.70;97.60;;;;;;4179913;28;20424;-85
2022/06/18 03:35:38;;;;;;;13.73;8.25;;;18.70;97.70;;;;;;4180390;28;20174;-85
2022/06/18 03:37:39;;;;;;;20.10;8.48;;;18.80;97.90;;;;;;4180494;28;20053;-85
2022/06/18 03:39:40;;;;;;;16.13;8.30;;;18.60;97.90;;;;;;4180531;28;20378;-85
2022/06/18 03:41:41;;;;;;;21.80;8.60;;;18.50;98.00;;;;;;4180364;28;20737;-85
2022/06/18 03:43:42;;;;;;;18.27;8.75;;;18.50;98.30;;;;;;4180427;28;20053;-85
2022/06/18 03:45:44;;;;;;;14.10;9.35;;;18.50;98.40;;;;;;4179945;28;20041;-85
2022/06/18 03:47:47;;;;;;;16.08;8.90;;;18.40;98.40;;;;;;4179021;28;20091;-85
2022/06/18 03:49:49;;;;;;;19.02;9.70;;;18.40;98.70;;;;;;4183168;28;20076;-85
2022/06/18 03:51:49;;;;;;;17.08;9.00;;;18.30;98.90;;;;;;4183649;28;20041;-85
2022/06/18 03:53:51;;;;;;;19.92;10.32;;;18.30;98.90;;;;;;4182137;28;20107;-85
2022/06/18 03:55:52;;;;;;;20.10;11.30;;;18.20;99.10;;;;;;4183616;28;20127;-85
2022/06/18 03:57:52;;;;;;;14.07;9.32;;;18.20;99.30;;;;;;4183323;28;20092;-85
2022/06/18 03:59:53;;;;;;;18.15;9.93;;;18.20;99.30;;;;;;4182896;28;20370;-85
2022/06/18 04:01:54;;;;;;;24.50;10.70;;;18.20;99.50;;;;;;4183521;28;20045;-85
2022/06/18 04:03:54;;;;;;;21.92;9.98;;;18.20;99.60;;;;;;4183759;28;20481;-85
2022/06/18 04:05:55;;;;;;;19.92;10.15;;;18.10;99.80;;;;;;4183489;28;20051;-85
2022/06/18 04:07:56;;;;;;;18.75;9.50;;;18.00;99.90;;;;;;4183347;28;20041;-85
2022/06/18 04:10:01;;;;;;;24.67;10.93;;;18.00;99.90;;;;;;4183276;28;20056;-85
2022/06/18 04:12:03;;;;;;;21.25;9.13;;;18.00;99.90;;;;;;4183408;28;20451;-85
2022/06/18 04:14:04;;;;;;;16.23;9.80;;;17.90;99.90;;;;;;4182874;28;20477;-85
2022/06/18 04:16:06;;;;;;;20.42;9.93;;;17.90;99.90;;;;;;4183429;28;20064;-85
2022/06/18 04:18:06;;;;;;;19.27;11.10;;;17.90;99.90;;;;;;4183324;28;20394;-85
2022/06/18 04:20:16;;;;;;;18.33;10.27;;;17.90;99.90;;;;;;4183284;28;20048;-85
2022/06/18 04:22:17;;;;;;;20.10;10.55;;;17.90;99.90;;;;;;4181365;28;20135;-85
2022/06/18 04:24:18;;;;;;;22.00;11.05;;;17.90;99.90;;;;;;4183131;28;20044;-85
2022/06/18 04:26:18;;;;;;;20.13;10.68;;;17.90;99.90;;;;;;4183233;28;20041;-85
2022/06/18 04:28:19;;;;;;;22.27;11.52;;;17.90;99.90;;;;;;4183030;28;20060;-85
2022/06/18 04:30:20;;;;;;;18.58;11.10;;;17.90;99.90;;;;;;4183184;28;20493;-85
2022/06/18 04:32:20;;;;;;;19.92;10.18;;;17.90;99.90;;;;;;4182906;28;20045;-85
2022/06/18 04:34:21;;;;;;;17.92;11.23;;;18.00;99.90;;;;;;4182805;28;20405;-85
2022/06/18 04:36:31;;;;;;;19.15;10.30;;;18.00;99.90;;;;;;4182918;28;20119;-85
2022/06/18 04:38:32;;;;;;;25.10;11.70;;;18.10;99.90;;;;;;4181572;28;20059;-85
2022/06/18 04:40:34;;;;;;;18.75;10.48;;;18.10;99.90;;;;;;4182648;28;20138;-85
2022/06/18 04:42:34;;;;;;;23.67;11.73;;;18.10;99.90;;;;;;4183060;28;20060;-85
2022/06/18 04:44:35;;;;;;;21.00;10.70;;;18.10;99.90;;;;;;4185805;28;20041;-85
2022/06/18 04:46:36;;;;;;;20.50;11.07;;;18.10;99.90;;;;;;4188892;28;20032;-85
2022/06/18 04:48:36;;;;;;;23.67;11.52;;;18.10;99.90;;;;;;4199212;28;20060;-85
2022/06/18 04:50:39;;;;;;;22.75;10.63;;;18.10;99.90;;;;;;4193306;28;20493;-85
2022/06/18 04:52:39;;;;;;;20.98;10.95;;;18.10;99.90;;;;;;4165260;28;20135;-85
2022/06/18 04:54:40;;;;;;;22.20;10.95;;;18.10;99.90;;;;;;4182193;28;20040;-85
2022/06/18 04:56:41;;;;;;;18.42;10.18;;;18.20;99.90;;;;;;4182912;28;20445;-85
2022/06/18 04:58:42;;;;;;;21.75;10.50;;;18.20;99.90;;;;;;4182515;28;20056;-85
2022/06/18 05:00:43;;;;;;;19.52;10.65;;;18.20;99.90;;;;;;4181675;28;20490;-85
2022/06/18 05:02:43;;;;;;;17.35;11.25;;;18.30;99.90;;;;;;4186600;28;20052;-85
2022/06/18 05:04:44;;;;;;;18.95;10.20;;;18.30;99.90;;;;;;4198404;28;20408;-85
2022/06/18 05:06:45;;;;;;;24.58;10.85;;;18.30;99.90;;;;;;4199359;28;20041;-85
2022/06/18 05:08:45;;;;;;;24.73;11.63;;;18.40;99.90;;;;;;4198970;28;20052;-85
2022/06/18 05:10:46;;;;;;;21.38;10.52;;;18.40;99.90;;;;;;4199104;28;20044;-85
2022/06/18 05:12:47;;;;;;;22.30;10.05;;;18.40;99.90;;;;;;4197424;28;20049;-85
2022/06/18 05:14:48;;;;;;;20.90;10.68;;;18.50;99.90;;;;;;4197761;28;20135;-85
2022/06/18 05:16:49;;;;;;;21.55;11.48;;;18.60;99.90;;;;;;4198930;28;20091;-85
2022/06/18 05:18:50;;;;;;;26.42;11.57;;;18.60;99.90;;;;;;4197210;28;20063;-86
2022/06/18 05:20:51;;;;;;;22.33;10.73;;;18.60;99.90;;;;;;4198924;28;20186;-85
2022/06/18 05:22:52;;;;;;;21.60;9.52;;;18.60;99.90;;;;;;4198914;28;20115;-85
2022/06/18 05:24:53;;;;;;;17.52;9.98;;;18.70;99.90;;;;;;4198860;28;20481;-85
2022/06/18 05:26:57;;;;;;;19.48;11.05;;;18.70;99.90;;;;;;4198414;28;20032;-85
2022/06/18 05:28:58;;;;;;;23.30;10.07;;;18.70;99.90;;;;;;4198555;28;20101;-85
2022/06/18 05:30:58;;;;;;;17.48;10.77;;;18.80;99.90;;;;;;4198285;28;20422;-85
2022/06/18 05:33:00;;;;;;;21.38;10.48;;;18.80;99.90;;;;;;4198708;28;20041;-85
2022/06/18 05:35:01;;;;;;;20.83;10.65;;;18.90;99.90;;;;;;4198766;28;20048;-86
2022/06/18 05:37:02;;;;;;;23.17;10.30;;;18.90;99.90;;;;;;4198525;28;20040;-85
2022/06/18 05:39:04;;;;;;;23.98;10.75;;;19.00;99.90;;;;;;4195040;28;20125;-85
2022/06/18 05:41:05;;;;;;;25.48;10.50;;;19.10;99.90;;;;;;4180917;28;20596;-85
2022/06/18 05:43:06;;;;;;;18.40;9.85;;;19.10;99.90;;;;;;4181009;28;20099;-85
2022/06/18 05:45:08;;;;;;;21.52;10.75;;;19.10;99.90;;;;;;4180421;28;20072;-85
2022/06/18 05:47:16;;;;;;;21.95;9.57;;;19.20;99.90;;;;;;4182183;28;20132;-85
2022/06/18 05:49:17;;;;;;;22.58;9.10;;;19.20;99.90;;;;;;4180670;28;20049;-84
2022/06/18 05:51:17;;;;;;;20.70;9.85;;;19.30;99.90;;;;;;4182037;28;20593;-84
2022/06/18 05:53:18;;;;;;;20.63;9.43;;;19.40;99.90;;;;;;4181404;28;20040;-85
2022/06/18 05:55:21;;;;;;;20.67;9.38;;;19.50;99.90;;;;;;4182118;28;20397;-86
2022/06/18 05:57:22;;;;;;;22.27;10.52;;;19.50;99.90;;;;;;4181832;28;20044;-85
2022/06/18 05:59:22;;;;;;;20.50;10.23;;;19.60;99.90;;;;;;4181831;28;20508;-85
2022/06/18 06:01:24;;;;;;;20.65;9.05;;;19.70;99.90;;;;;;4179848;28;20049;-86
2022/06/18 06:03:24;;;;;;;17.77;8.65;;;19.80;99.90;;;;;;4180042;28;20080;-86
2022/06/18 06:05:25;;;;;;;15.75;8.23;;;19.80;99.90;;;;;;4181134;28;20047;-85
2022/06/18 06:07:26;;;;;;;19.35;8.15;;;19.90;99.90;;;;;;4179574;28;20048;-85
2022/06/18 06:11:49;;;;;;;24.35;8.77;;;20.00;99.90;;;;;;4180429;28;20045;-86
2022/06/18 06:13:50;;;;;;;22.10;10.40;;;20.10;99.90;;;;;;4180988;28;20053;-86
2022/06/18 06:15:52;;;;;;;13.77;7.38;;;20.10;99.90;;;;;;4180794;28;20053;-85
2022/06/18 06:17:53;;;;;;;18.50;8.20;;;20.10;99.90;;;;;;4180975;28;20049;-86
2022/06/18 06:20:18;;;;;;;14.77;7.80;;;20.20;99.90;;;;;;4179460;28;20045;-86
2022/06/18 06:22:19;;;;;;;11.77;6.85;;;20.30;99.90;;;;;;4180886;28;20481;-85
2022/06/18 06:24:20;;;;;;;17.60;7.10;;;20.40;99.90;;;;;;4180974;28;20459;-86
2022/06/18 06:26:30;;;;;;;16.30;7.20;;;20.50;99.90;;;;;;4180707;28;20102;-86
2022/06/18 06:28:31;;;;;;;14.73;6.60;;;20.60;99.90;;;;;;4179167;28;20052;-86
2022/06/18 06:30:31;;;;;;;13.68;6.55;;;20.80;99.90;;;;;;4179747;28;20417;-85
2022/06/18 06:32:32;;;;;;;15.18;6.30;;;20.80;99.90;;;;;;4181145;28;20052;-86
2022/06/18 06:34:33;;;;;;;12.82;6.85;;;20.80;99.90;;;;;;4180186;28;20049;-86
2022/06/18 06:36:33;;;;;;;14.15;6.10;;;20.90;99.90;;;;;;4181187;28;20041;-86
2022/06/18 06:38:37;;;;;;;16.95;6.22;;;20.90;99.70;;;;;;4182584;28;20041;-86
2022/06/18 06:40:41;;;;;;;13.75;5.85;;;21.00;99.60;;;;;;4182451;28;20044;-87
2022/06/18 06:42:47;;;;;;;14.20;5.38;;;21.10;99.40;;;;;;4185647;28;20048;-87
2022/06/18 06:44:47;;;;;;;14.93;5.10;;;21.20;99.20;;;;;;4175730;28;20055;-87
2022/06/18 06:46:48;;;;;;;15.82;5.10;;;21.20;99.10;;;;;;4199020;28;20123;-86
2022/06/18 06:48:49;;;;;;;12.48;6.10;;;21.30;98.90;;;;;;4187786;28;20044;-87
2022/06/18 06:50:50;;;;;;;17.38;5.63;;;21.60;98.70;;;;;;4183412;28;20052;-87
2022/06/18 06:52:52;;;;;;;16.02;6.20;;;21.40;98.60;;;;;;4197170;28;20075;-87
2022/06/18 06:57:21;;;;;;;16.00;6.05;;;21.50;98.40;;;;;;4192693;28;20040;-85
2022/06/18 06:57:22;;;;;;;11.82;4.55;;;21.60;98.40;;;;;;4182623;28;20068;-87
2022/06/18 06:59:23;;;;;;;11.65;4.60;;;21.60;98.40;;;;;;4182575;28;20076;-87
2022/06/18 07:01:23;;;;;;;9.63;4.18;;;21.70;98.10;;;;;;4196294;28;20098;-87
2022/06/18 07:03:28;;;;;;;12.10;4.28;;;21.70;98.10;;;;;;4199481;28;20076;-88
2022/06/18 07:05:29;;;;;;;9.15;4.45;;;21.80;98.10;;;;;;4216734;28;20048;-87
2022/06/18 07:07:30;;;;;;;8.43;4.25;;;21.80;97.80;;;;;;4217044;28;20100;-87
2022/06/18 07:09:31;;;;;;;13.05;4.75;;;21.90;97.60;;;;;;4217596;28;20052;-86
2022/06/18 07:11:37;;;;;;;9.27;5.47;;;21.90;97.60;;;;;;4218250;28;20052;-86
2022/06/18 07:13:38;;;;;;;14.15;5.55;;;21.90;97.30;;;;;;4217894;28;20067;-86
2022/06/18 07:15:38;;;;;;;13.80;6.13;;;22.00;97.40;;;;;;4217677;28;20210;-87
2022/06/18 07:17:40;;;;;;;14.50;5.13;;;22.00;97.50;;;;;;4217358;28;20025;-87
2022/06/18 07:19:41;;;;;;;13.65;6.05;;;22.10;97.40;;;;;;4218267;28;20056;-87
2022/06/18 07:21:42;;;;;;;19.25;6.03;;;22.10;97.30;;;;;;4218408;28;20025;-87
2022/06/18 07:23:44;;;;;;;13.23;4.43;;;22.20;97.20;;;;;;4215356;28;20095;-86
2022/06/18 07:25:44;;;;;;;11.15;4.40;;;22.20;96.80;;;;;;4200533;28;20051;-86
2022/06/18 07:27:45;;;;;;;14.00;5.18;;;22.30;96.60;;;;;;4200086;28;20052;-86
2022/06/18 07:29:47;;;;;;;12.70;4.25;;;22.30;96.60;;;;;;4210683;28;20040;-87
2022/06/18 07:31:49;;;;;;;14.95;4.57;;;22.40;96.50;;;;;;4213930;28;20043;-87
2022/06/18 07:33:51;;;;;;;10.65;3.97;;;22.40;96.40;;;;;;4200716;28;20041;-86
2022/06/18 07:35:53;;;;;;;10.73;4.15;;;22.50;96.20;;;;;;4197849;28;20095;-87
2022/06/18 07:37:56;;;;;;;9.77;3.67;;;22.60;96.10;;;;;;4182855;28;20076;-87
2022/06/18 07:39:57;;;;;;;9.73;3.95;;;22.70;96.00;;;;;;4181384;28;20049;-87
2022/06/18 07:41:57;;;;;;;12.70;3.17;;;22.90;95.90;;;;;;4181276;28;20068;-86
2022/06/18 07:43:59;;;;;;;8.13;3.15;;;22.90;95.50;;;;;;4163043;28;20494;-87
2022/06/18 07:46:01;;;;;;;6.93;3.28;;;23.00;95.20;;;;;;4180962;28;20041;-87
2022/06/18 07:48:02;;;;;;;11.35;3.95;;;23.10;95.10;;;;;;4180935;28;20076;-87
2022/06/18 07:50:03;;;;;;;7.15;2.75;;;23.20;95.20;;;;;;4180439;28;20045;-87
2022/06/18 07:52:05;;;;;;;7.07;2.70;;;23.30;95.10;;;;;;4183698;28;20092;-86
2022/06/18 07:54:12;;;;;;;8.10;2.63;;;23.40;94.90;;;;;;4179405;28;20198;-86
2022/06/18 07:56:14;;;;;;;6.05;2.03;;;23.50;94.80;;;;;;4180903;28;20091;-87
2022/06/18 07:58:16;;;;;;;6.90;2.45;;;23.50;94.40;;;;;;4180850;28;20612;-87
2022/06/18 08:00:19;;;;;;;5.70;2.00;;;23.60;94.30;;;;;;4181045;28;20060;-87
2022/06/18 08:02:20;;;;;;;4.07;2.00;;;23.70;94.30;;;;;;4180807;28;20053;-87
2022/06/18 08:04:21;;;;;;;9.43;2.05;;;23.70;94.10;;;;;;4179542;28;20413;-87
2022/06/18 08:06:22;;;;;;;5.93;1.67;;;23.70;94.10;;;;;;4181089;28;20045;-87
2022/06/18 08:08:24;;;;;;;6.50;1.65;;;23.80;94.20;;;;;;4180689;28;20052;-87
2022/06/18 08:10:24;;;;;;;5.93;1.90;;;24.00;94.20;;;;;;4179633;28;20044;-87
2022/06/18 08:12:25;;;;;;;4.13;1.63;;;24.10;94.00;;;;;;4181002;28;20049;-86
2022/06/18 08:14:26;;;;;;;2.80;1.35;;;24.20;93.80;;;;;;4180638;28;20052;-86
2022/06/18 08:16:27;;;;;;;6.80;1.73;;;24.20;93.70;;;;;;4180298;28;20052;-86
2022/06/18 08:18:28;;;;;;;4.75;1.10;;;24.30;93.50;;;;;;4179706;28;20044;-87
2022/06/18 08:20:30;;;;;;;3.72;1.30;;;24.20;93.30;;;;;;4179743;28;20485;-87
2022/06/18 08:22:32;;;;;;;3.20;1.30;;;24.20;93.40;;;;;;4179214;28;20070;-87
2022/06/18 08:24:33;;;;;;;2.63;1.10;;;24.20;93.40;;;;;;4180410;28;20041;-87
2022/06/18 08:26:34;;;;;;;2.63;1.00;;;24.20;93.40;;;;;;4180816;28;20378;-86
2022/06/18 08:28:36;;;;;;;3.30;1.55;;;24.30;93.40;;;;;;4180600;28;20072;-88
2022/06/18 08:30:39;;;;;;;5.10;1.30;;;24.50;93.30;;;;;;4180807;28;20076;-86
2022/06/18 08:32:43;;;;;;;1.60;0.93;;;24.60;93.10;;;;;;4181035;28;20101;-86
2022/06/18 08:34:44;;;;;;;2.95;1.15;;;24.70;92.70;;;;;;4180258;28;20087;-87
2022/06/18 08:36:45;;;;;;;1.83;0.95;;;24.70;92.70;;;;;;4186862;28;20451;-86
2022/06/18 08:38:48;;;;;;;2.70;1.20;;;24.60;92.50;;;;;;4199844;28;20048;-87
2022/06/18 08:41:23;;;;;;;2.42;0.90;;;24.80;92.70;;;;;;4200122;28;20553;-86
2022/06/18 08:43:40;;;;;;;3.35;0.93;;;24.80;91.90;;;;;;4199660;28;20044;-87
2022/06/18 08:45:58;;;;;;;4.97;1.88;;;25.00;91.60;;;;;;4200069;28;20044;-87
2022/06/18 08:48:26;;;;;;;1.05;0.70;;;25.10;92.00;;;;;;4199892;28;20040;-87
2022/06/18 08:50:53;;;;;;;2.13;0.90;;;25.30;90.70;;;;;;4199934;28;20550;-87
2022/06/18 08:53:06;;;;;;;3.22;0.98;;;25.40;90.10;;;;;;4199361;28;20201;-87
2022/06/18 08:55:13;;;;;;;2.15;1.20;;;25.30;90.80;;;;;;4199704;28;20040;-87
2022/06/18 08:57:28;;;;;;;4.53;1.17;;;25.40;90.70;;;;;;4199360;28;20488;-87
2022/06/18 09:00:10;;;;;;;1.90;0.88;;;25.50;89.60;;;;;;4199742;28;20493;-86
2022/06/18 09:02:20;;;;;;;3.15;0.85;;;25.60;87.40;;;;;;4199333;28;20445;-87
2022/06/18 09:04:40;;;;;;;4.03;1.00;;;25.70;90.10;;;;;;4199533;28;20053;-87
2022/06/18 09:06:55;;;;;;;3.30;0.85;;;25.80;90.00;;;;;;4199617;28;20044;-86
2022/06/18 09:09:05;;;;;;;2.20;0.77;;;25.90;89.50;;;;;;4184792;28;20128;-87
2022/06/18 09:11:51;;;;;;;1.40;0.70;;;25.90;88.60;;;;;;4182976;28;20549;-86
2022/06/18 09:14:10;;;;;;;1.75;0.80;;;25.90;84.10;;;;;;4182534;28;20455;-86
2022/06/18 09:16:15;;;;;;;5.53;1.73;;;26.00;85.50;;;;;;4181021;28;20076;-86
2022/06/18 09:18:31;;;;;;;6.93;1.77;;;25.90;88.10;;;;;;4181281;28;20041;-86
2022/06/18 09:20:48;;;;;;;2.22;0.70;;;25.90;87.90;;;;;;4182266;28;20037;-86
2022/06/18 09:22:53;;;;;;;2.30;0.90;;;26.10;86.90;;;;;;4182448;28;20049;-86
2022/06/18 09:25:01;;;;;;;4.88;1.13;;;26.40;86.00;;;;;;4182370;28;20055;-86
2022/06/18 09:27:06;;;;;;;2.03;1.08;;;26.50;84.70;;;;;;4181985;28;20119;-85
2022/06/18 09:29:10;;;;;;;1.17;0.90;;;26.70;84.40;;;;;;4182522;28;20052;-86
2022/06/18 09:31:19;;;;;;;2.78;1.02;;;26.80;84.00;;;;;;4182375;28;20055;-86
2022/06/18 09:33:48;;;;;;;6.28;1.30;;;26.90;82.30;;;;;;4182240;28;20045;-86
2022/06/18 09:35:53;;;;;;;4.80;1.30;;;26.90;81.20;;;;;;4180018;28;20138;-86
2022/06/18 09:38:03;;;;;;;2.97;0.88;;;26.90;82.20;;;;;;4182143;28;20044;-86
2022/06/18 09:40:10;;;;;;;3.05;1.33;;;26.90;81.90;;;;;;4181633;28;20493;-86
2022/06/18 09:42:22;;;;;;;3.58;1.40;;;26.90;83.00;;;;;;4183504;28;20106;-86
2022/06/18 09:44:49;;;;;;;3.30;1.00;;;27.00;81.40;;;;;;4182492;28;20052;-86
2022/06/18 09:46:56;;;;;;;3.60;0.90;;;27.20;82.00;;;;;;4183584;28;20087;-86
2022/06/18 09:48:57;;;;;;;3.38;1.05;;;27.40;81.10;;;;;;4182515;28;20049;-86
2022/06/18 09:51:04;;;;;;;2.17;0.98;;;27.70;81.00;;;;;;4184135;28;20055;-86
2022/06/18 09:53:18;;;;;;;4.00;1.10;;;27.70;79.00;;;;;;4195689;28;20100;-86
2022/06/18 09:55:26;;;;;;;2.60;0.90;;;27.90;78.70;;;;;;4196259;28;20049;-86
2022/06/18 09:57:31;;;;;;;2.05;0.90;;;28.00;78.50;;;;;;4195843;28;20072;-86
2022/06/18 09:59:41;;;;;;;2.22;1.15;;;28.10;77.50;;;;;;4193592;28;20513;-86
2022/06/18 10:01:45;;;;;;;3.42;1.35;;;28.10;76.80;;;;;;4195402;28;20074;-86
2022/06/18 10:08:38;;;;;;;1.70;0.85;;;28.20;77.20;;;;;;4180779;28;20112;-86
2022/06/18 10:10:51;;;;;;;1.92;0.90;;;28.40;75.70;;;;;;4180872;28;20053;-86
2022/06/18 10:12:55;;;;;;;1.98;1.10;;;28.50;73.40;;;;;;4180572;28;20053;-86
2022/06/18 10:14:57;;;;;;;3.58;0.88;;;;;;;;;;4181228;28;20053;-86
2022/06/18 10:17:22;;;;;;;5.10;1.00;;;28.70;73.90;;;;;;4179948;28;20052;-86
2022/06/18 10:19:34;;;;;;;3.80;1.30;;;;;;;;;;4181824;28;20048;-86
2022/06/18 10:22:16;;;;;;;1.77;0.90;;;29.10;68.40;;;;;;4163707;28;20049;-86
2022/06/18 10:24:32;;;;;;;3.25;0.80;;;29.30;70.20;;;;;;4178429;28;20460;-86
2022/06/18 10:26:36;;;;;;;2.45;0.55;;;;;;;;;;4180424;28;20043;-86
2022/06/18 10:28:49;;;;;;;1.73;0.50;;;29.20;71.50;;;;;;4182074;28;20445;-86
2022/06/18 10:30:50;;;;;;;0.82;0.50;;;29.70;67.10;;;;;;4181939;28;20461;-86
2022/06/18 10:33:15;;;;;;;1.35;0.75;;;29.60;68.50;;;;;;4181312;28;20049;-86
2022/06/18 10:35:38;;;;;;;2.38;0.70;;;29.70;65.70;;;;;;4181191;28;20119;-87
2022/06/18 10:37:43;;;;;;;1.80;0.75;;;29.90;64.50;;;;;;4181509;28;20041;-86
2022/06/18 10:39:51;;;;;;;1.00;0.50;;;;;;;;;;4181865;28;20037;-87
2022/06/18 10:41:53;;;;;;;1.73;0.60;;;;;;;;;;4181889;28;20048;-87
2022/06/18 10:44:12;;;;;;;1.80;0.60;;;30.00;67.00;;;;;;4181701;28;20045;-86
2022/06/18 10:46:20;;;;;;;2.33;0.57;;;30.60;63.20;;;;;;4181040;28;20397;-86
2022/06/18 10:48:26;;;;;;;2.63;0.57;;;30.80;63.80;;;;;;4181678;28;20040;-88
2022/06/18 10:50:29;;;;;;;1.08;0.50;;;;;;;;;;4181729;28;20045;-86
2022/06/18 10:52:31;;;;;;;1.42;0.30;;;;;;;;;;4182847;28;20438;-86
2022/06/18 10:54:35;;;;;;;5.07;1.33;;;;;;;;;;4182501;28;20123;-86
2022/06/18 10:56:48;;;;;;;1.75;0.30;;;;;;;;;;4181534;28;20076;-86
2022/06/18 10:58:57;;;;;;;2.97;0.73;;;;;;;;;;4180322;28;20110;-86
2022/06/18 11:00:58;;;;;;;;;;;;;;;;;;4181235;28;20565;-86
2022/06/18 11:03:02;;;;;;;2.47;0.35;;;;;;;;;;4181068;28;19931;-86